sensor_id;sensor_type;location;lat;lon;timestamp;P1;durP1;ratioP1;P2;durP2;ratioP2
3331;SDS011;1678;50.94845400;5.30809100;2022-07-10T00:01:02;1.63;;;1.53;;
3331;SDS011;1678;50.94845400;5.30809100;2022-07-10T00:03:31;3.63;;;1.93;;
3331;SDS011;1678;50.94845400;5.30809100;2022-07-10T00:06:00;1.60;;;1.57;;
3331;SDS011;1678;50.94845400;5.30809100;2022-07-10T00:08:28;2.43;;;2.30;;
3331;SDS011;1678;50.94845400;5.30809100;2022-07-10T00:10:56;5.53;;;2.57;;
3331;SDS011;1678;50.94845400;5.30809100;2022-07-10T00:13:24;3.23;;;2.63;;
3331;SDS011;1678;50.94845400;5.30809100;2022-07-10T00:15:53;7.87;;;2.10;;
3331;SDS011;1678;50.94845400;5.30809100;2022-07-10T00:18:21;3.40;;;1.93;;
3331;SDS011;1678;50.94845400;5.30809100;2022-07-10T00:20:50;2.80;;;1.90;;
3331;SDS011;1678;50.94845400;5.30809100;2022-07-10T00:23:19;7.10;;;2.80;;
3331;SDS011;1678;50.94845400;5.30809100;2022-07-10T00:25:47;2.70;;;1.93;;
3331;SDS011;1678;50.94845400;5.30809100;2022-07-10T00:28:15;2.93;;;2.00;;
3331;SDS011;1678;50.94845400;5.30809100;2022-07-10T00:30:43;2.40;;;1.80;;
3331;SDS011;1678;50.94845400;5.30809100;2022-07-10T00:33:11;6.03;;;2.30;;
3331;SDS011;1678;50.94845400;5.30809100;2022-07-10T00:35:39;11.97;;;1.93;;
3331;SDS011;1678;50.94845400;5.30809100;2022-07-10T00:38:09;1.90;;;1.67;;
3331;SDS011;1678;50.94845400;5.30809100;2022-07-10T00:40:37;3.77;;;2.17;;
3331;SDS011;1678;50.94845400;5.30809100;2022-07-10T00:43:07;2.83;;;1.70;;
3331;SDS011;1678;50.94845400;5.30809100;2022-07-10T00:45:36;4.40;;;2.57;;
3331;SDS011;1678;50.94845400;5.30809100;2022-07-10T00:48:04;4.97;;;2.60;;
3331;SDS011;1678;50.94845400;5.30809100;2022-07-10T00:50:32;2.50;;;2.13;;
3331;SDS011;1678;50.94845400;5.30809100;2022-07-10T00:53:01;2.70;;;2.33;;
3331;SDS011;1678;50.94845400;5.30809100;2022-07-10T00:55:31;1.87;;;1.87;;
3331;SDS011;1678;50.94845400;5.30809100;2022-07-10T00:58:01;4.77;;;1.83;;
3331;SDS011;1678;50.94845400;5.30809100;2022-07-10T01:00:29;3.60;;;2.30;;
3331;SDS011;1678;50.94845400;5.30809100;2022-07-10T01:02:58;2.50;;;1.57;;
3331;SDS011;1678;50.94845400;5.30809100;2022-07-10T01:05:27;11.43;;;2.17;;
3331;SDS011;1678;50.94845400;5.30809100;2022-07-10T01:07:55;2.17;;;1.97;;
3331;SDS011;1678;50.94845400;5.30809100;2022-07-10T01:10:23;3.53;;;3.23;;
3331;SDS011;1678;50.94845400;5.30809100;2022-07-10T01:12:55;4.13;;;2.57;;
3331;SDS011;1678;50.94845400;5.30809100;2022-07-10T01:15:23;4.53;;;2.60;;
3331;SDS011;1678;50.94845400;5.30809100;2022-07-10T01:17:52;3.07;;;2.00;;
3331;SDS011;1678;50.94845400;5.30809100;2022-07-10T01:20:28;4.93;;;2.90;;
3331;SDS011;1678;50.94845400;5.30809100;2022-07-10T01:22:58;5.37;;;1.27;;
3331;SDS011;1678;50.94845400;5.30809100;2022-07-10T01:25:27;2.07;;;1.30;;
3331;SDS011;1678;50.94845400;5.30809100;2022-07-10T01:27:55;1.90;;;1.80;;
3331;SDS011;1678;50.94845400;5.30809100;2022-07-10T01:30:25;3.53;;;2.60;;
3331;SDS011;1678;50.94845400;5.30809100;2022-07-10T01:32:53;2.43;;;2.23;;
3331;SDS011;1678;50.94845400;5.30809100;2022-07-10T01:35:21;2.40;;;2.10;;
3331;SDS011;1678;50.94845400;5.30809100;2022-07-10T01:37:50;3.37;;;2.37;;
3331;SDS011;1678;50.94845400;5.30809100;2022-07-10T01:40:19;3.77;;;2.23;;
3331;SDS011;1678;50.94845400;5.30809100;2022-07-10T01:42:48;6.60;;;3.10;;
3331;SDS011;1678;50.94845400;5.30809100;2022-07-10T01:45:16;3.53;;;2.23;;
3331;SDS011;1678;50.94845400;5.30809100;2022-07-10T01:47:45;2.47;;;2.47;;
3331;SDS011;1678;50.94845400;5.30809100;2022-07-10T01:50:13;4.83;;;4.43;;
3331;SDS011;1678;50.94845400;5.30809100;2022-07-10T01:52:41;2.30;;;2.20;;
3331;SDS011;1678;50.94845400;5.30809100;2022-07-10T01:55:09;4.20;;;3.50;;
3331;SDS011;1678;50.94845400;5.30809100;2022-07-10T01:57:38;3.40;;;2.33;;
3331;SDS011;1678;50.94845400;5.30809100;2022-07-10T02:00:07;16.77;;;3.83;;
3331;SDS011;1678;50.94845400;5.30809100;2022-07-10T02:02:36;3.93;;;3.13;;
3331;SDS011;1678;50.94845400;5.30809100;2022-07-10T02:05:05;3.77;;;3.37;;
3331;SDS011;1678;50.94845400;5.30809100;2022-07-10T02:07:32;10.23;;;3.03;;
3331;SDS011;1678;50.94845400;5.30809100;2022-07-10T02:10:00;7.03;;;2.70;;
3331;SDS011;1678;50.94845400;5.30809100;2022-07-10T02:12:28;12.20;;;3.43;;
3331;SDS011;1678;50.94845400;5.30809100;2022-07-10T02:14:58;2.67;;;2.47;;
3331;SDS011;1678;50.94845400;5.30809100;2022-07-10T02:17:28;2.87;;;1.80;;
3331;SDS011;1678;50.94845400;5.30809100;2022-07-10T02:19:56;4.13;;;3.73;;
3331;SDS011;1678;50.94845400;5.30809100;2022-07-10T02:22:24;2.90;;;2.70;;
3331;SDS011;1678;50.94845400;5.30809100;2022-07-10T02:24:52;3.90;;;2.50;;
3331;SDS011;1678;50.94845400;5.30809100;2022-07-10T02:27:20;5.27;;;1.90;;
3331;SDS011;1678;50.94845400;5.30809100;2022-07-10T02:29:48;6.13;;;3.37;;
3331;SDS011;1678;50.94845400;5.30809100;2022-07-10T02:32:18;2.43;;;2.27;;
3331;SDS011;1678;50.94845400;5.30809100;2022-07-10T02:34:46;2.47;;;2.13;;
3331;SDS011;1678;50.94845400;5.30809100;2022-07-10T02:37:14;2.37;;;2.17;;
3331;SDS011;1678;50.94845400;5.30809100;2022-07-10T02:39:42;1.83;;;1.73;;
3331;SDS011;1678;50.94845400;5.30809100;2022-07-10T02:42:10;4.00;;;2.50;;
3331;SDS011;1678;50.94845400;5.30809100;2022-07-10T02:44:39;4.13;;;2.40;;
3331;SDS011;1678;50.94845400;5.30809100;2022-07-10T02:47:07;2.30;;;2.20;;
3331;SDS011;1678;50.94845400;5.30809100;2022-07-10T02:49:36;1.50;;;1.50;;
3331;SDS011;1678;50.94845400;5.30809100;2022-07-10T02:52:05;2.77;;;2.67;;
3331;SDS011;1678;50.94845400;5.30809100;2022-07-10T02:54:33;5.33;;;2.13;;
3331;SDS011;1678;50.94845400;5.30809100;2022-07-10T02:57:01;8.23;;;2.47;;
3331;SDS011;1678;50.94845400;5.30809100;2022-07-10T02:59:30;4.13;;;1.80;;
3331;SDS011;1678;50.94845400;5.30809100;2022-07-10T03:01:58;5.60;;;2.70;;
3331;SDS011;1678;50.94845400;5.30809100;2022-07-10T03:04:27;2.60;;;2.10;;
3331;SDS011;1678;50.94845400;5.30809100;2022-07-10T03:06:56;3.90;;;2.10;;
3331;SDS011;1678;50.94845400;5.30809100;2022-07-10T03:09:24;7.90;;;3.00;;
3331;SDS011;1678;50.94845400;5.30809100;2022-07-10T03:11:53;7.57;;;3.00;;
3331;SDS011;1678;50.94845400;5.30809100;2022-07-10T03:14:21;3.23;;;2.40;;
3331;SDS011;1678;50.94845400;5.30809100;2022-07-10T03:16:49;1.93;;;1.83;;
3331;SDS011;1678;50.94845400;5.30809100;2022-07-10T03:19:18;3.80;;;1.90;;
3331;SDS011;1678;50.94845400;5.30809100;2022-07-10T03:21:46;1.97;;;1.87;;
3331;SDS011;1678;50.94845400;5.30809100;2022-07-10T03:24:16;3.23;;;2.97;;
3331;SDS011;1678;50.94845400;5.30809100;2022-07-10T03:26:44;5.67;;;3.97;;
3331;SDS011;1678;50.94845400;5.30809100;2022-07-10T03:29:12;4.13;;;2.87;;
3331;SDS011;1678;50.94845400;5.30809100;2022-07-10T03:31:46;4.17;;;3.90;;
3331;SDS011;1678;50.94845400;5.30809100;2022-07-10T03:34:14;2.50;;;2.40;;
3331;SDS011;1678;50.94845400;5.30809100;2022-07-10T03:36:42;6.10;;;3.63;;
3331;SDS011;1678;50.94845400;5.30809100;2022-07-10T03:39:10;7.60;;;3.57;;
3331;SDS011;1678;50.94845400;5.30809100;2022-07-10T03:41:40;8.70;;;3.23;;
3331;SDS011;1678;50.94845400;5.30809100;2022-07-10T03:44:08;3.50;;;2.40;;
3331;SDS011;1678;50.94845400;5.30809100;2022-07-10T03:46:36;4.43;;;3.40;;
3331;SDS011;1678;50.94845400;5.30809100;2022-07-10T03:49:05;4.87;;;3.23;;
3331;SDS011;1678;50.94845400;5.30809100;2022-07-10T03:51:33;7.10;;;3.90;;
3331;SDS011;1678;50.94845400;5.30809100;2022-07-10T03:54:01;3.70;;;3.43;;
3331;SDS011;1678;50.94845400;5.30809100;2022-07-10T03:56:30;8.43;;;3.43;;
3331;SDS011;1678;50.94845400;5.30809100;2022-07-10T03:59:17;4.47;;;3.97;;
3331;SDS011;1678;50.94845400;5.30809100;2022-07-10T04:01:45;3.47;;;3.27;;
3331;SDS011;1678;50.94845400;5.30809100;2022-07-10T04:04:14;3.97;;;2.90;;
3331;SDS011;1678;50.94845400;5.30809100;2022-07-10T04:06:42;5.03;;;2.83;;
3331;SDS011;1678;50.94845400;5.30809100;2022-07-10T04:09:10;7.30;;;3.80;;
3331;SDS011;1678;50.94845400;5.30809100;2022-07-10T04:11:38;4.60;;;4.17;;
3331;SDS011;1678;50.94845400;5.30809100;2022-07-10T04:14:07;5.43;;;3.77;;
3331;SDS011;1678;50.94845400;5.30809100;2022-07-10T04:16:36;4.30;;;4.00;;
3331;SDS011;1678;50.94845400;5.30809100;2022-07-10T04:19:04;5.20;;;4.57;;
3331;SDS011;1678;50.94845400;5.30809100;2022-07-10T04:21:33;5.50;;;4.30;;
3331;SDS011;1678;50.94845400;5.30809100;2022-07-10T04:24:01;5.50;;;4.43;;
3331;SDS011;1678;50.94845400;5.30809100;2022-07-10T04:26:32;5.70;;;4.23;;
3331;SDS011;1678;50.94845400;5.30809100;2022-07-10T04:29:00;15.83;;;4.80;;
3331;SDS011;1678;50.94845400;5.30809100;2022-07-10T04:31:28;8.43;;;3.77;;
3331;SDS011;1678;50.94845400;5.30809100;2022-07-10T04:33:58;6.33;;;4.50;;
3331;SDS011;1678;50.94845400;5.30809100;2022-07-10T04:36:26;4.53;;;3.57;;
3331;SDS011;1678;50.94845400;5.30809100;2022-07-10T04:38:54;4.00;;;3.27;;
3331;SDS011;1678;50.94845400;5.30809100;2022-07-10T04:41:22;7.60;;;5.20;;
3331;SDS011;1678;50.94845400;5.30809100;2022-07-10T04:43:51;8.33;;;3.50;;
3331;SDS011;1678;50.94845400;5.30809100;2022-07-10T04:46:19;9.60;;;4.73;;
3331;SDS011;1678;50.94845400;5.30809100;2022-07-10T04:48:48;5.00;;;4.53;;
3331;SDS011;1678;50.94845400;5.30809100;2022-07-10T04:51:18;15.10;;;3.87;;
3331;SDS011;1678;50.94845400;5.30809100;2022-07-10T04:53:46;3.83;;;3.10;;
3331;SDS011;1678;50.94845400;5.30809100;2022-07-10T04:56:14;4.30;;;4.20;;
3331;SDS011;1678;50.94845400;5.30809100;2022-07-10T04:58:43;4.40;;;4.17;;
3331;SDS011;1678;50.94845400;5.30809100;2022-07-10T05:01:17;5.90;;;3.17;;
3331;SDS011;1678;50.94845400;5.30809100;2022-07-10T05:03:46;4.27;;;3.80;;
3331;SDS011;1678;50.94845400;5.30809100;2022-07-10T05:06:14;5.80;;;3.70;;
3331;SDS011;1678;50.94845400;5.30809100;2022-07-10T05:08:43;4.43;;;3.83;;
3331;SDS011;1678;50.94845400;5.30809100;2022-07-10T05:11:11;3.60;;;3.40;;
3331;SDS011;1678;50.94845400;5.30809100;2022-07-10T05:13:40;3.57;;;3.27;;
3331;SDS011;1678;50.94845400;5.30809100;2022-07-10T05:16:11;4.00;;;2.93;;
3331;SDS011;1678;50.94845400;5.30809100;2022-07-10T05:18:45;5.87;;;4.63;;
3331;SDS011;1678;50.94845400;5.30809100;2022-07-10T05:21:14;5.13;;;3.77;;
3331;SDS011;1678;50.94845400;5.30809100;2022-07-10T05:23:43;6.27;;;3.60;;
3331;SDS011;1678;50.94845400;5.30809100;2022-07-10T05:26:12;4.57;;;4.33;;
3331;SDS011;1678;50.94845400;5.30809100;2022-07-10T05:28:40;7.10;;;3.47;;
3331;SDS011;1678;50.94845400;5.30809100;2022-07-10T05:31:08;6.40;;;3.87;;
3331;SDS011;1678;50.94845400;5.30809100;2022-07-10T05:33:36;6.93;;;3.77;;
3331;SDS011;1678;50.94845400;5.30809100;2022-07-10T05:36:07;4.97;;;3.70;;
3331;SDS011;1678;50.94845400;5.30809100;2022-07-10T05:38:35;4.30;;;3.23;;
3331;SDS011;1678;50.94845400;5.30809100;2022-07-10T05:41:05;4.80;;;3.37;;
3331;SDS011;1678;50.94845400;5.30809100;2022-07-10T05:43:34;3.47;;;3.00;;
3331;SDS011;1678;50.94845400;5.30809100;2022-07-10T05:46:03;4.30;;;3.20;;
3331;SDS011;1678;50.94845400;5.30809100;2022-07-10T05:48:32;4.13;;;3.00;;
3331;SDS011;1678;50.94845400;5.30809100;2022-07-10T05:51:01;3.37;;;3.07;;
3331;SDS011;1678;50.94845400;5.30809100;2022-07-10T05:53:49;6.00;;;4.00;;
3331;SDS011;1678;50.94845400;5.30809100;2022-07-10T05:56:18;3.43;;;3.13;;
3331;SDS011;1678;50.94845400;5.30809100;2022-07-10T05:58:46;6.33;;;3.93;;
3331;SDS011;1678;50.94845400;5.30809100;2022-07-10T06:01:16;4.20;;;2.63;;
3331;SDS011;1678;50.94845400;5.30809100;2022-07-10T06:03:44;5.90;;;3.57;;
3331;SDS011;1678;50.94845400;5.30809100;2022-07-10T06:06:12;3.83;;;3.57;;
3331;SDS011;1678;50.94845400;5.30809100;2022-07-10T06:08:41;4.47;;;3.33;;
3331;SDS011;1678;50.94845400;5.30809100;2022-07-10T06:11:10;7.70;;;4.50;;
3331;SDS011;1678;50.94845400;5.30809100;2022-07-10T06:13:40;5.40;;;3.37;;
3331;SDS011;1678;50.94845400;5.30809100;2022-07-10T06:16:08;3.20;;;3.00;;
3331;SDS011;1678;50.94845400;5.30809100;2022-07-10T06:18:37;3.70;;;3.40;;
3331;SDS011;1678;50.94845400;5.30809100;2022-07-10T06:21:05;3.13;;;2.97;;
3331;SDS011;1678;50.94845400;5.30809100;2022-07-10T06:23:34;2.80;;;2.60;;
3331;SDS011;1678;50.94845400;5.30809100;2022-07-10T06:26:02;4.27;;;2.67;;
3331;SDS011;1678;50.94845400;5.30809100;2022-07-10T06:28:30;2.20;;;2.10;;
3331;SDS011;1678;50.94845400;5.30809100;2022-07-10T06:31:03;2.87;;;2.73;;
3331;SDS011;1678;50.94845400;5.30809100;2022-07-10T06:33:32;2.90;;;2.70;;
3331;SDS011;1678;50.94845400;5.30809100;2022-07-10T06:36:02;8.70;;;2.70;;
3331;SDS011;1678;50.94845400;5.30809100;2022-07-10T06:38:30;6.67;;;2.50;;
3331;SDS011;1678;50.94845400;5.30809100;2022-07-10T06:40:58;5.30;;;2.83;;
3331;SDS011;1678;50.94845400;5.30809100;2022-07-10T06:43:27;9.00;;;2.60;;
3331;SDS011;1678;50.94845400;5.30809100;2022-07-10T06:45:55;2.67;;;1.90;;
3331;SDS011;1678;50.94845400;5.30809100;2022-07-10T06:48:25;6.83;;;2.27;;
3331;SDS011;1678;50.94845400;5.30809100;2022-07-10T06:50:54;4.27;;;2.00;;
3331;SDS011;1678;50.94845400;5.30809100;2022-07-10T06:53:23;4.20;;;2.13;;
3331;SDS011;1678;50.94845400;5.30809100;2022-07-10T06:55:53;9.27;;;2.10;;
3331;SDS011;1678;50.94845400;5.30809100;2022-07-10T06:58:21;9.87;;;2.00;;
3331;SDS011;1678;50.94845400;5.30809100;2022-07-10T07:00:50;5.13;;;2.70;;
3331;SDS011;1678;50.94845400;5.30809100;2022-07-10T07:03:18;6.50;;;2.03;;
3331;SDS011;1678;50.94845400;5.30809100;2022-07-10T07:05:47;1.43;;;1.30;;
3331;SDS011;1678;50.94845400;5.30809100;2022-07-10T07:08:15;3.60;;;1.60;;
3331;SDS011;1678;50.94845400;5.30809100;2022-07-10T07:10:43;3.97;;;1.60;;
3331;SDS011;1678;50.94845400;5.30809100;2022-07-10T07:13:12;9.17;;;2.50;;
3331;SDS011;1678;50.94845400;5.30809100;2022-07-10T07:15:40;3.80;;;1.60;;
3331;SDS011;1678;50.94845400;5.30809100;2022-07-10T07:18:14;2.73;;;1.20;;
3331;SDS011;1678;50.94845400;5.30809100;2022-07-10T07:20:43;1.23;;;1.13;;
3331;SDS011;1678;50.94845400;5.30809100;2022-07-10T07:23:30;4.27;;;1.50;;
3331;SDS011;1678;50.94845400;5.30809100;2022-07-10T07:25:58;10.20;;;1.37;;
3331;SDS011;1678;50.94845400;5.30809100;2022-07-10T07:28:26;4.57;;;1.87;;
3331;SDS011;1678;50.94845400;5.30809100;2022-07-10T07:30:55;0.83;;;0.83;;
3331;SDS011;1678;50.94845400;5.30809100;2022-07-10T07:33:26;1.73;;;1.07;;
3331;SDS011;1678;50.94845400;5.30809100;2022-07-10T07:35:54;1.70;;;1.10;;
3331;SDS011;1678;50.94845400;5.30809100;2022-07-10T07:38:22;3.53;;;1.97;;
3331;SDS011;1678;50.94845400;5.30809100;2022-07-10T07:40:52;2.63;;;1.30;;
3331;SDS011;1678;50.94845400;5.30809100;2022-07-10T07:43:20;5.03;;;1.17;;
3331;SDS011;1678;50.94845400;5.30809100;2022-07-10T07:45:48;6.43;;;0.93;;
3331;SDS011;1678;50.94845400;5.30809100;2022-07-10T07:48:16;1.77;;;1.47;;
3331;SDS011;1678;50.94845400;5.30809100;2022-07-10T07:50:44;3.80;;;0.93;;
3331;SDS011;1678;50.94845400;5.30809100;2022-07-10T07:53:12;7.30;;;1.10;;
3331;SDS011;1678;50.94845400;5.30809100;2022-07-10T07:55:40;5.30;;;1.27;;
3331;SDS011;1678;50.94845400;5.30809100;2022-07-10T07:58:10;7.23;;;1.20;;
3331;SDS011;1678;50.94845400;5.30809100;2022-07-10T08:00:38;8.43;;;1.17;;
3331;SDS011;1678;50.94845400;5.30809100;2022-07-10T08:03:06;0.70;;;0.70;;
3331;SDS011;1678;50.94845400;5.30809100;2022-07-10T08:05:35;1.63;;;0.90;;
3331;SDS011;1678;50.94845400;5.30809100;2022-07-10T08:08:03;1.93;;;1.40;;
3331;SDS011;1678;50.94845400;5.30809100;2022-07-10T08:10:34;1.27;;;0.60;;
3331;SDS011;1678;50.94845400;5.30809100;2022-07-10T08:13:11;1.40;;;0.73;;
3331;SDS011;1678;50.94845400;5.30809100;2022-07-10T08:15:40;6.70;;;0.83;;
3331;SDS011;1678;50.94845400;5.30809100;2022-07-10T08:18:08;6.10;;;1.03;;
3331;SDS011;1678;50.94845400;5.30809100;2022-07-10T08:20:36;2.93;;;1.30;;
3331;SDS011;1678;50.94845400;5.30809100;2022-07-10T08:23:04;1.87;;;1.03;;
3331;SDS011;1678;50.94845400;5.30809100;2022-07-10T08:25:32;3.37;;;1.30;;
3331;SDS011;1678;50.94845400;5.30809100;2022-07-10T08:28:01;1.73;;;1.07;;
3331;SDS011;1678;50.94845400;5.30809100;2022-07-10T08:30:33;2.63;;;1.07;;
3331;SDS011;1678;50.94845400;5.30809100;2022-07-10T08:33:01;2.90;;;1.40;;
3331;SDS011;1678;50.94845400;5.30809100;2022-07-10T08:35:30;0.60;;;0.60;;
3331;SDS011;1678;50.94845400;5.30809100;2022-07-10T08:37:58;1.43;;;1.30;;
3331;SDS011;1678;50.94845400;5.30809100;2022-07-10T08:40:29;2.03;;;0.73;;
3331;SDS011;1678;50.94845400;5.30809100;2022-07-10T08:43:02;5.70;;;0.80;;
3331;SDS011;1678;50.94845400;5.30809100;2022-07-10T08:45:31;3.83;;;0.90;;
3331;SDS011;1678;50.94845400;5.30809100;2022-07-10T08:48:02;3.83;;;1.10;;
3331;SDS011;1678;50.94845400;5.30809100;2022-07-10T08:50:32;4.07;;;1.00;;
3331;SDS011;1678;50.94845400;5.30809100;2022-07-10T08:53:07;2.40;;;0.77;;
3331;SDS011;1678;50.94845400;5.30809100;2022-07-10T08:55:37;2.30;;;0.67;;
3331;SDS011;1678;50.94845400;5.30809100;2022-07-10T08:58:05;2.00;;;0.80;;
3331;SDS011;1678;50.94845400;5.30809100;2022-07-10T09:00:37;2.93;;;0.90;;
3331;SDS011;1678;50.94845400;5.30809100;2022-07-10T09:03:07;4.03;;;1.30;;
3331;SDS011;1678;50.94845400;5.30809100;2022-07-10T09:05:35;1.87;;;1.17;;
3331;SDS011;1678;50.94845400;5.30809100;2022-07-10T09:08:03;4.53;;;1.13;;
3331;SDS011;1678;50.94845400;5.30809100;2022-07-10T09:10:48;5.80;;;1.00;;
3331;SDS011;1678;50.94845400;5.30809100;2022-07-10T09:13:16;4.77;;;0.93;;
3331;SDS011;1678;50.94845400;5.30809100;2022-07-10T09:15:49;5.37;;;0.77;;
3331;SDS011;1678;50.94845400;5.30809100;2022-07-10T09:18:21;3.23;;;1.40;;
3331;SDS011;1678;50.94845400;5.30809100;2022-07-10T09:20:52;4.50;;;1.10;;
3331;SDS011;1678;50.94845400;5.30809100;2022-07-10T09:23:21;1.10;;;1.10;;
3331;SDS011;1678;50.94845400;5.30809100;2022-07-10T09:25:52;1.70;;;0.90;;
3331;SDS011;1678;50.94845400;5.30809100;2022-07-10T09:28:21;1.03;;;0.93;;
3331;SDS011;1678;50.94845400;5.30809100;2022-07-10T09:30:52;1.13;;;0.80;;
3331;SDS011;1678;50.94845400;5.30809100;2022-07-10T09:33:21;2.10;;;1.30;;
3331;SDS011;1678;50.94845400;5.30809100;2022-07-10T09:35:55;0.90;;;0.90;;
3331;SDS011;1678;50.94845400;5.30809100;2022-07-10T09:38:49;2.20;;;1.07;;
3331;SDS011;1678;50.94845400;5.30809100;2022-07-10T09:41:24;1.57;;;1.47;;
3331;SDS011;1678;50.94845400;5.30809100;2022-07-10T09:43:54;4.63;;;0.90;;
3331;SDS011;1678;50.94845400;5.30809100;2022-07-10T09:46:25;1.30;;;0.83;;
3331;SDS011;1678;50.94845400;5.30809100;2022-07-10T09:49:01;3.43;;;1.27;;
3331;SDS011;1678;50.94845400;5.30809100;2022-07-10T09:51:35;1.87;;;0.90;;
3331;SDS011;1678;50.94845400;5.30809100;2022-07-10T09:54:14;4.67;;;1.23;;
3331;SDS011;1678;50.94845400;5.30809100;2022-07-10T09:56:43;1.20;;;1.10;;
3331;SDS011;1678;50.94845400;5.30809100;2022-07-10T09:59:13;3.90;;;0.63;;
3331;SDS011;1678;50.94845400;5.30809100;2022-07-10T10:01:45;0.80;;;0.80;;
3331;SDS011;1678;50.94845400;5.30809100;2022-07-10T10:04:14;2.00;;;0.90;;
3331;SDS011;1678;50.94845400;5.30809100;2022-07-10T10:06:45;5.97;;;1.43;;
3331;SDS011;1678;50.94845400;5.30809100;2022-07-10T10:09:19;3.43;;;1.47;;
3331;SDS011;1678;50.94845400;5.30809100;2022-07-10T10:11:52;0.70;;;0.70;;
3331;SDS011;1678;50.94845400;5.30809100;2022-07-10T10:14:24;4.50;;;1.53;;
3331;SDS011;1678;50.94845400;5.30809100;2022-07-10T10:16:56;5.00;;;2.10;;
3331;SDS011;1678;50.94845400;5.30809100;2022-07-10T10:19:24;2.30;;;1.13;;
3331;SDS011;1678;50.94845400;5.30809100;2022-07-10T10:22:11;4.90;;;0.93;;
3331;SDS011;1678;50.94845400;5.30809100;2022-07-10T10:24:42;5.80;;;1.53;;
3331;SDS011;1678;50.94845400;5.30809100;2022-07-10T10:27:12;3.13;;;1.03;;
3331;SDS011;1678;50.94845400;5.30809100;2022-07-10T10:29:40;2.50;;;1.40;;
3331;SDS011;1678;50.94845400;5.30809100;2022-07-10T10:32:11;1.20;;;1.20;;
3331;SDS011;1678;50.94845400;5.30809100;2022-07-10T10:34:40;4.80;;;1.30;;
3331;SDS011;1678;50.94845400;5.30809100;2022-07-10T10:40:08;2.80;;;1.03;;
3331;SDS011;1678;50.94845400;5.30809100;2022-07-10T10:42:37;1.47;;;0.97;;
3331;SDS011;1678;50.94845400;5.30809100;2022-07-10T10:48:08;1.60;;;1.03;;
3331;SDS011;1678;50.94845400;5.30809100;2022-07-10T10:50:58;2.27;;;1.53;;
3331;SDS011;1678;50.94845400;5.30809100;2022-07-10T10:53:26;0.80;;;0.80;;
3331;SDS011;1678;50.94845400;5.30809100;2022-07-10T10:58:51;1.80;;;1.17;;
3331;SDS011;1678;50.94845400;5.30809100;2022-07-10T11:01:24;2.50;;;1.00;;
3331;SDS011;1678;50.94845400;5.30809100;2022-07-10T11:04:14;2.73;;;1.20;;
3331;SDS011;1678;50.94845400;5.30809100;2022-07-10T11:06:45;1.40;;;1.30;;
3331;SDS011;1678;50.94845400;5.30809100;2022-07-10T11:09:21;3.00;;;1.10;;
3331;SDS011;1678;50.94845400;5.30809100;2022-07-10T11:11:58;4.97;;;1.70;;
3331;SDS011;1678;50.94845400;5.30809100;2022-07-10T11:14:28;2.17;;;0.90;;
3331;SDS011;1678;50.94845400;5.30809100;2022-07-10T11:16:57;4.53;;;0.90;;
3331;SDS011;1678;50.94845400;5.30809100;2022-07-10T11:19:28;7.97;;;2.70;;
3331;SDS011;1678;50.94845400;5.30809100;2022-07-10T11:22:07;2.20;;;1.30;;
3331;SDS011;1678;50.94845400;5.30809100;2022-07-10T11:24:49;1.10;;;1.00;;
3331;SDS011;1678;50.94845400;5.30809100;2022-07-10T11:27:28;2.50;;;1.10;;
3331;SDS011;1678;50.94845400;5.30809100;2022-07-10T11:30:02;1.63;;;0.90;;
3331;SDS011;1678;50.94845400;5.30809100;2022-07-10T11:32:31;2.10;;;0.93;;
3331;SDS011;1678;50.94845400;5.30809100;2022-07-10T11:35:02;3.60;;;1.17;;
3331;SDS011;1678;50.94845400;5.30809100;2022-07-10T11:37:34;5.03;;;1.00;;
3331;SDS011;1678;50.94845400;5.30809100;2022-07-10T11:40:09;2.67;;;1.50;;
3331;SDS011;1678;50.94845400;5.30809100;2022-07-10T11:42:47;4.40;;;1.70;;
3331;SDS011;1678;50.94845400;5.30809100;2022-07-10T11:45:24;1.50;;;1.40;;
3331;SDS011;1678;50.94845400;5.30809100;2022-07-10T11:47:53;1.30;;;1.30;;
3331;SDS011;1678;50.94845400;5.30809100;2022-07-10T11:50:23;2.10;;;1.43;;
3331;SDS011;1678;50.94845400;5.30809100;2022-07-10T11:52:53;1.87;;;1.77;;
3331;SDS011;1678;50.94845400;5.30809100;2022-07-10T11:55:22;4.67;;;1.27;;
3331;SDS011;1678;50.94845400;5.30809100;2022-07-10T11:57:51;2.37;;;1.40;;
3331;SDS011;1678;50.94845400;5.30809100;2022-07-10T12:00:23;2.30;;;1.80;;
3331;SDS011;1678;50.94845400;5.30809100;2022-07-10T12:02:52;3.47;;;2.00;;
3331;SDS011;1678;50.94845400;5.30809100;2022-07-10T12:05:33;2.63;;;1.50;;
3331;SDS011;1678;50.94845400;5.30809100;2022-07-10T12:08:02;1.60;;;1.50;;
3331;SDS011;1678;50.94845400;5.30809100;2022-07-10T12:10:31;3.70;;;1.13;;
3331;SDS011;1678;50.94845400;5.30809100;2022-07-10T12:13:04;6.20;;;1.77;;
3331;SDS011;1678;50.94845400;5.30809100;2022-07-10T12:15:34;3.87;;;1.30;;
3331;SDS011;1678;50.94845400;5.30809100;2022-07-10T12:18:05;1.33;;;1.30;;
3331;SDS011;1678;50.94845400;5.30809100;2022-07-10T12:20:36;1.07;;;0.90;;
3331;SDS011;1678;50.94845400;5.30809100;2022-07-10T12:23:08;7.27;;;2.30;;
3331;SDS011;1678;50.94845400;5.30809100;2022-07-10T12:25:37;4.00;;;1.60;;
3331;SDS011;1678;50.94845400;5.30809100;2022-07-10T12:28:05;2.30;;;1.60;;
3331;SDS011;1678;50.94845400;5.30809100;2022-07-10T12:30:37;2.83;;;1.80;;
3331;SDS011;1678;50.94845400;5.30809100;2022-07-10T12:33:09;7.20;;;1.70;;
3331;SDS011;1678;50.94845400;5.30809100;2022-07-10T12:35:50;2.00;;;1.60;;
3331;SDS011;1678;50.94845400;5.30809100;2022-07-10T12:38:21;2.63;;;1.60;;
3331;SDS011;1678;50.94845400;5.30809100;2022-07-10T12:40:51;1.40;;;1.40;;
3331;SDS011;1678;50.94845400;5.30809100;2022-07-10T12:43:33;1.90;;;1.80;;
3331;SDS011;1678;50.94845400;5.30809100;2022-07-10T12:46:12;2.00;;;1.67;;
3331;SDS011;1678;50.94845400;5.30809100;2022-07-10T12:49:03;2.43;;;2.30;;
3331;SDS011;1678;50.94845400;5.30809100;2022-07-10T12:51:33;2.00;;;1.90;;
3331;SDS011;1678;50.94845400;5.30809100;2022-07-10T12:54:29;1.80;;;1.70;;
3331;SDS011;1678;50.94845400;5.30809100;2022-07-10T12:56:58;1.80;;;1.70;;
3331;SDS011;1678;50.94845400;5.30809100;2022-07-10T12:59:27;2.20;;;2.00;;
3331;SDS011;1678;50.94845400;5.30809100;2022-07-10T13:01:55;1.87;;;1.67;;
3331;SDS011;1678;50.94845400;5.30809100;2022-07-10T13:04:25;2.10;;;2.00;;
3331;SDS011;1678;50.94845400;5.30809100;2022-07-10T13:06:55;2.80;;;2.60;;
3331;SDS011;1678;50.94845400;5.30809100;2022-07-10T13:09:40;3.33;;;1.70;;
3331;SDS011;1678;50.94845400;5.30809100;2022-07-10T13:12:09;2.33;;;1.90;;
3331;SDS011;1678;50.94845400;5.30809100;2022-07-10T13:14:38;1.20;;;1.20;;
3331;SDS011;1678;50.94845400;5.30809100;2022-07-10T13:17:06;1.20;;;1.10;;
3331;SDS011;1678;50.94845400;5.30809100;2022-07-10T13:19:34;2.40;;;1.57;;
3331;SDS011;1678;50.94845400;5.30809100;2022-07-10T13:22:04;1.70;;;1.60;;
3331;SDS011;1678;50.94845400;5.30809100;2022-07-10T13:24:32;1.67;;;1.57;;
3331;SDS011;1678;50.94845400;5.30809100;2022-07-10T13:27:00;1.40;;;1.30;;
3331;SDS011;1678;50.94845400;5.30809100;2022-07-10T13:29:29;2.93;;;1.53;;
3331;SDS011;1678;50.94845400;5.30809100;2022-07-10T13:31:57;1.30;;;1.20;;
3331;SDS011;1678;50.94845400;5.30809100;2022-07-10T13:34:25;1.00;;;1.00;;
3331;SDS011;1678;50.94845400;5.30809100;2022-07-10T13:36:53;1.63;;;1.63;;